sensor_id;sensor_type;location;lat;lon;timestamp;P1;durP1;ratioP1;P2;durP2;ratioP2
46116;SDS011;32591;48.102;11.772;2024-03-25T00:00:34;2.47;;;1.17;;
46116;SDS011;32591;48.102;11.772;2024-03-25T00:03:02;2.10;;;1.25;;
46116;SDS011;32591;48.102;11.772;2024-03-25T00:05:30;7.25;;;1.70;;
46116;SDS011;32591;48.102;11.772;2024-03-25T00:07:57;4.60;;;1.65;;
46116;SDS011;32591;48.102;11.772;2024-03-25T00:10:25;5.10;;;1.42;;
46116;SDS011;32591;48.102;11.772;2024-03-25T00:12:51;3.60;;;1.80;;
46116;SDS011;32591;48.102;11.772;2024-03-25T00:15:21;4.80;;;1.63;;
46116;SDS011;32591;48.102;11.772;2024-03-25T00:17:49;1.83;;;1.20;;
46116;SDS011;32591;48.102;11.772;2024-03-25T00:20:18;5.82;;;1.30;;
46116;SDS011;32591;48.102;11.772;2024-03-25T00:22:44;1.90;;;1.20;;
46116;SDS011;32591;48.102;11.772;2024-03-25T00:25:11;2.40;;;1.10;;
46116;SDS011;32591;48.102;11.772;2024-03-25T00:27:37;4.13;;;1.35;;
46116;SDS011;32591;48.102;11.772;2024-03-25T00:30:05;2.35;;;1.40;;
46116;SDS011;32591;48.102;11.772;2024-03-25T00:32:34;2.53;;;1.58;;
46116;SDS011;32591;48.102;11.772;2024-03-25T00:35:02;2.72;;;1.55;;
46116;SDS011;32591;48.102;11.772;2024-03-25T00:39:57;5.05;;;1.63;;
46116;SDS011;32591;48.102;11.772;2024-03-25T00:42:23;2.20;;;1.17;;
46116;SDS011;32591;48.102;11.772;2024-03-25T00:44:50;2.60;;;1.23;;
46116;SDS011;32591;48.102;11.772;2024-03-25T00:47:16;3.60;;;1.50;;
46116;SDS011;32591;48.102;11.772;2024-03-25T00:49:44;5.95;;;1.52;;
46116;SDS011;32591;48.102;11.772;2024-03-25T00:52:10;2.63;;;1.55;;
46116;SDS011;32591;48.102;11.772;2024-03-25T00:54:38;3.92;;;1.50;;
46116;SDS011;32591;48.102;11.772;2024-03-25T00:57:05;2.90;;;1.27;;
46116;SDS011;32591;48.102;11.772;2024-03-25T00:59:33;1.75;;;1.05;;
46116;SDS011;32591;48.102;11.772;2024-03-25T01:01:59;2.22;;;1.42;;
46116;SDS011;32591;48.102;11.772;2024-03-25T01:04:26;1.98;;;1.30;;
46116;SDS011;32591;48.102;11.772;2024-03-25T01:06:52;6.18;;;1.40;;
46116;SDS011;32591;48.102;11.772;2024-03-25T01:09:19;2.40;;;1.20;;
46116;SDS011;32591;48.102;11.772;2024-03-25T01:11:48;2.33;;;1.25;;
46116;SDS011;32591;48.102;11.772;2024-03-25T01:14:23;3.53;;;1.48;;
46116;SDS011;32591;48.102;11.772;2024-03-25T01:16:49;2.15;;;1.27;;
46116;SDS011;32591;48.102;11.772;2024-03-25T01:19:16;2.38;;;1.42;;
46116;SDS011;32591;48.102;11.772;2024-03-25T01:21:43;2.75;;;2.20;;
46116;SDS011;32591;48.102;11.772;2024-03-25T01:24:11;2.80;;;1.63;;
46116;SDS011;32591;48.102;11.772;2024-03-25T01:26:37;2.70;;;1.35;;
46116;SDS011;32591;48.102;11.772;2024-03-25T01:29:05;3.17;;;1.13;;
46116;SDS011;32591;48.102;11.772;2024-03-25T01:31:32;2.30;;;1.50;;
46116;SDS011;32591;48.102;11.772;2024-03-25T01:34:00;5.20;;;1.38;;
46116;SDS011;32591;48.102;11.772;2024-03-25T01:36:26;3.08;;;1.58;;
46116;SDS011;32591;48.102;11.772;2024-03-25T01:38:53;3.45;;;1.38;;
46116;SDS011;32591;48.102;11.772;2024-03-25T01:41:20;3.85;;;1.20;;
46116;SDS011;32591;48.102;11.772;2024-03-25T01:43:49;2.55;;;1.08;;
46116;SDS011;32591;48.102;11.772;2024-03-25T01:46:17;1.45;;;1.33;;
46116;SDS011;32591;48.102;11.772;2024-03-25T01:48:46;1.80;;;1.00;;
46116;SDS011;32591;48.102;11.772;2024-03-25T01:51:14;3.00;;;1.30;;
46116;SDS011;32591;48.102;11.772;2024-03-25T01:53:44;1.85;;;1.00;;
46116;SDS011;32591;48.102;11.772;2024-03-25T01:56:11;2.13;;;1.00;;
46116;SDS011;32591;48.102;11.772;2024-03-25T01:58:40;3.33;;;1.35;;
46116;SDS011;32591;48.102;11.772;2024-03-25T02:05:34;2.17;;;1.15;;
46116;SDS011;32591;48.102;11.772;2024-03-25T02:08:01;2.92;;;1.02;;
46116;SDS011;32591;48.102;11.772;2024-03-25T02:10:29;4.55;;;1.13;;
46116;SDS011;32591;48.102;11.772;2024-03-25T02:12:56;2.58;;;1.17;;
46116;SDS011;32591;48.102;11.772;2024-03-25T02:15:23;2.70;;;1.40;;
46116;SDS011;32591;48.102;11.772;2024-03-25T02:17:51;2.53;;;1.25;;
46116;SDS011;32591;48.102;11.772;2024-03-25T02:20:18;2.85;;;1.00;;
46116;SDS011;32591;48.102;11.772;2024-03-25T02:22:46;1.77;;;0.98;;
46116;SDS011;32591;48.102;11.772;2024-03-25T02:25:13;1.90;;;1.05;;
46116;SDS011;32591;48.102;11.772;2024-03-25T02:27:44;1.70;;;0.90;;
46116;SDS011;32591;48.102;11.772;2024-03-25T02:30:10;2.63;;;1.20;;
46116;SDS011;32591;48.102;11.772;2024-03-25T02:32:39;2.85;;;0.90;;
46116;SDS011;32591;48.102;11.772;2024-03-25T02:35:07;4.82;;;1.30;;
46116;SDS011;32591;48.102;11.772;2024-03-25T02:37:37;1.65;;;1.00;;
46116;SDS011;32591;48.102;11.772;2024-03-25T02:40:05;4.05;;;1.20;;
46116;SDS011;32591;48.102;11.772;2024-03-25T02:42:35;2.88;;;1.10;;
46116;SDS011;32591;48.102;11.772;2024-03-25T02:45:03;1.48;;;1.05;;
46116;SDS011;32591;48.102;11.772;2024-03-25T02:47:32;2.67;;;0.90;;
46116;SDS011;32591;48.102;11.772;2024-03-25T02:49:58;1.85;;;1.10;;
46116;SDS011;32591;48.102;11.772;2024-03-25T02:52:25;4.57;;;1.52;;
46116;SDS011;32591;48.102;11.772;2024-03-25T02:54:53;2.80;;;1.30;;
46116;SDS011;32591;48.102;11.772;2024-03-25T02:57:19;2.00;;;1.08;;
46116;SDS011;32591;48.102;11.772;2024-03-25T02:59:47;1.70;;;1.10;;
46116;SDS011;32591;48.102;11.772;2024-03-25T03:02:14;3.10;;;1.25;;
46116;SDS011;32591;48.102;11.772;2024-03-25T03:04:42;3.28;;;1.50;;
46116;SDS011;32591;48.102;11.772;2024-03-25T03:07:08;2.63;;;1.60;;
46116;SDS011;32591;48.102;11.772;2024-03-25T03:09:36;1.33;;;0.90;;
46116;SDS011;32591;48.102;11.772;2024-03-25T03:12:03;1.98;;;1.17;;
46116;SDS011;32591;48.102;11.772;2024-03-25T03:14:31;1.95;;;1.25;;
46116;SDS011;32591;48.102;11.772;2024-03-25T03:16:57;6.13;;;1.67;;
46116;SDS011;32591;48.102;11.772;2024-03-25T03:19:26;1.63;;;1.05;;
46116;SDS011;32591;48.102;11.772;2024-03-25T03:21:52;2.20;;;1.42;;
46116;SDS011;32591;48.102;11.772;2024-03-25T03:24:20;4.28;;;1.65;;
46116;SDS011;32591;48.102;11.772;2024-03-25T03:26:46;5.13;;;1.48;;
46116;SDS011;32591;48.102;11.772;2024-03-25T03:29:13;3.58;;;1.77;;
46116;SDS011;32591;48.102;11.772;2024-03-25T03:31:39;3.63;;;1.63;;
46116;SDS011;32591;48.102;11.772;2024-03-25T03:34:06;3.40;;;1.42;;
46116;SDS011;32591;48.102;11.772;2024-03-25T03:36:34;2.75;;;1.65;;
46116;SDS011;32591;48.102;11.772;2024-03-25T03:39:01;4.15;;;2.03;;
46116;SDS011;32591;48.102;11.772;2024-03-25T03:41:28;1.98;;;1.25;;
46116;SDS011;32591;48.102;11.772;2024-03-25T03:43:56;4.72;;;1.73;;
46116;SDS011;32591;48.102;11.772;2024-03-25T03:46:22;2.53;;;1.48;;
46116;SDS011;32591;48.102;11.772;2024-03-25T03:48:49;4.30;;;1.80;;
46116;SDS011;32591;48.102;11.772;2024-03-25T03:51:15;2.65;;;1.30;;
46116;SDS011;32591;48.102;11.772;2024-03-25T03:53:44;2.05;;;1.23;;
46116;SDS011;32591;48.102;11.772;2024-03-25T03:56:10;3.75;;;1.65;;
46116;SDS011;32591;48.102;11.772;2024-03-25T03:58:37;3.80;;;1.45;;
46116;SDS011;32591;48.102;11.772;2024-03-25T04:01:03;4.03;;;1.98;;
46116;SDS011;32591;48.102;11.772;2024-03-25T04:03:31;4.70;;;1.58;;
46116;SDS011;32591;48.102;11.772;2024-03-25T04:05:57;3.00;;;1.33;;
46116;SDS011;32591;48.102;11.772;2024-03-25T04:08:24;4.78;;;1.65;;
46116;SDS011;32591;48.102;11.772;2024-03-25T04:10:52;1.85;;;1.20;;
46116;SDS011;32591;48.102;11.772;2024-03-25T04:13:19;3.05;;;1.42;;
46116;SDS011;32591;48.102;11.772;2024-03-25T04:15:46;2.83;;;1.95;;
46116;SDS011;32591;48.102;11.772;2024-03-25T04:18:12;3.55;;;1.70;;
46116;SDS011;32591;48.102;11.772;2024-03-25T04:20:39;3.88;;;1.70;;
46116;SDS011;32591;48.102;11.772;2024-03-25T04:23:06;1.90;;;1.20;;
46116;SDS011;32591;48.102;11.772;2024-03-25T04:25:34;1.95;;;1.38;;
46116;SDS011;32591;48.102;11.772;2024-03-25T04:28:04;5.25;;;1.73;;
46116;SDS011;32591;48.102;11.772;2024-03-25T04:30:32;2.60;;;1.50;;
46116;SDS011;32591;48.102;11.772;2024-03-25T04:32:59;6.10;;;1.98;;
46116;SDS011;32591;48.102;11.772;2024-03-25T04:35:26;3.15;;;1.67;;
46116;SDS011;32591;48.102;11.772;2024-03-25T04:37:53;4.80;;;1.48;;
46116;SDS011;32591;48.102;11.772;2024-03-25T04:42:45;4.75;;;1.58;;
46116;SDS011;32591;48.102;11.772;2024-03-25T04:45:13;5.97;;;1.88;;
46116;SDS011;32591;48.102;11.772;2024-03-25T04:47:39;3.80;;;1.70;;
46116;SDS011;32591;48.102;11.772;2024-03-25T04:50:06;6.38;;;1.70;;
46116;SDS011;32591;48.102;11.772;2024-03-25T04:52:33;2.88;;;1.58;;
46116;SDS011;32591;48.102;11.772;2024-03-25T04:54:59;4.95;;;1.90;;
46116;SDS011;32591;48.102;11.772;2024-03-25T04:57:26;2.25;;;1.50;;
46116;SDS011;32591;48.102;11.772;2024-03-25T04:59:52;4.13;;;1.45;;
46116;SDS011;32591;48.102;11.772;2024-03-25T05:02:19;3.60;;;1.85;;
46116;SDS011;32591;48.102;11.772;2024-03-25T05:04:46;3.08;;;1.77;;
46116;SDS011;32591;48.102;11.772;2024-03-25T05:07:12;5.03;;;1.35;;
46116;SDS011;32591;48.102;11.772;2024-03-25T05:09:38;3.13;;;1.67;;
46116;SDS011;32591;48.102;11.772;2024-03-25T05:12:04;5.25;;;1.58;;
46116;SDS011;32591;48.102;11.772;2024-03-25T05:14:31;3.90;;;1.95;;
46116;SDS011;32591;48.102;11.772;2024-03-25T05:16:57;2.53;;;1.58;;
46116;SDS011;32591;48.102;11.772;2024-03-25T05:19:25;6.93;;;2.22;;
46116;SDS011;32591;48.102;11.772;2024-03-25T05:21:51;5.13;;;1.63;;
46116;SDS011;32591;48.102;11.772;2024-03-25T05:24:18;3.65;;;1.92;;
46116;SDS011;32591;48.102;11.772;2024-03-25T05:26:44;4.07;;;1.63;;
46116;SDS011;32591;48.102;11.772;2024-03-25T05:29:10;2.85;;;1.70;;
46116;SDS011;32591;48.102;11.772;2024-03-25T05:31:36;4.20;;;2.55;;
46116;SDS011;32591;48.102;11.772;2024-03-25T05:34:05;3.83;;;1.80;;
46116;SDS011;32591;48.102;11.772;2024-03-25T05:36:32;2.42;;;1.42;;
46116;SDS011;32591;48.102;11.772;2024-03-25T05:38:59;3.33;;;1.58;;
46116;SDS011;32591;48.102;11.772;2024-03-25T05:41:25;4.78;;;1.90;;
46116;SDS011;32591;48.102;11.772;2024-03-25T05:43:51;2.70;;;1.95;;
46116;SDS011;32591;48.102;11.772;2024-03-25T05:46:18;6.07;;;1.67;;
46116;SDS011;32591;48.102;11.772;2024-03-25T05:48:45;5.88;;;2.38;;
46116;SDS011;32591;48.102;11.772;2024-03-25T05:51:11;5.57;;;1.63;;
46116;SDS011;32591;48.102;11.772;2024-03-25T05:53:38;5.18;;;1.55;;
46116;SDS011;32591;48.102;11.772;2024-03-25T05:56:05;3.70;;;1.67;;
46116;SDS011;32591;48.102;11.772;2024-03-25T05:58:31;4.15;;;1.60;;
46116;SDS011;32591;48.102;11.772;2024-03-25T06:00:57;3.88;;;1.83;;
46116;SDS011;32591;48.102;11.772;2024-03-25T06:03:24;2.88;;;1.40;;
46116;SDS011;32591;48.102;11.772;2024-03-25T06:05:50;5.75;;;1.48;;
46116;SDS011;32591;48.102;11.772;2024-03-25T06:08:16;5.97;;;2.10;;
46116;SDS011;32591;48.102;11.772;2024-03-25T06:10:44;4.70;;;1.80;;
46116;SDS011;32591;48.102;11.772;2024-03-25T06:13:11;3.75;;;1.67;;
46116;SDS011;32591;48.102;11.772;2024-03-25T06:15:38;8.02;;;1.90;;
46116;SDS011;32591;48.102;11.772;2024-03-25T06:18:04;5.15;;;1.60;;
46116;SDS011;32591;48.102;11.772;2024-03-25T06:20:30;4.63;;;1.75;;
46116;SDS011;32591;48.102;11.772;2024-03-25T06:22:56;2.28;;;1.30;;
46116;SDS011;32591;48.102;11.772;2024-03-25T06:25:23;5.78;;;2.15;;
46116;SDS011;32591;48.102;11.772;2024-03-25T06:27:50;2.25;;;1.52;;
46116;SDS011;32591;48.102;11.772;2024-03-25T06:30:17;2.60;;;1.48;;
46116;SDS011;32591;48.102;11.772;2024-03-25T06:33:02;3.63;;;1.90;;
46116;SDS011;32591;48.102;11.772;2024-03-25T06:35:46;1.85;;;1.42;;
46116;SDS011;32591;48.102;11.772;2024-03-25T06:38:13;2.58;;;1.50;;
46116;SDS011;32591;48.102;11.772;2024-03-25T06:40:39;3.78;;;1.40;;
46116;SDS011;32591;48.102;11.772;2024-03-25T06:43:06;2.38;;;1.25;;
46116;SDS011;32591;48.102;11.772;2024-03-25T06:45:33;3.10;;;1.27;;
46116;SDS011;32591;48.102;11.772;2024-03-25T06:47:59;5.13;;;2.00;;
46116;SDS011;32591;48.102;11.772;2024-03-25T06:50:26;7.32;;;1.92;;
46116;SDS011;32591;48.102;11.772;2024-03-25T06:52:52;2.38;;;1.52;;
46116;SDS011;32591;48.102;11.772;2024-03-25T06:55:19;3.53;;;1.23;;
46116;SDS011;32591;48.102;11.772;2024-03-25T06:57:45;1.92;;;1.08;;
46116;SDS011;32591;48.102;11.772;2024-03-25T07:00:13;4.20;;;1.70;;
46116;SDS011;32591;48.102;11.772;2024-03-25T07:02:40;3.67;;;1.85;;
46116;SDS011;32591;48.102;11.772;2024-03-25T07:05:07;2.78;;;1.50;;
46116;SDS011;32591;48.102;11.772;2024-03-25T07:09:59;5.43;;;2.67;;
46116;SDS011;32591;48.102;11.772;2024-03-25T07:12:26;4.18;;;1.40;;
46116;SDS011;32591;48.102;11.772;2024-03-25T07:14:52;4.78;;;2.28;;
46116;SDS011;32591;48.102;11.772;2024-03-25T07:17:20;2.95;;;1.60;;
46116;SDS011;32591;48.102;11.772;2024-03-25T07:19:46;5.47;;;1.95;;
46116;SDS011;32591;48.102;11.772;2024-03-25T07:22:12;4.15;;;1.88;;
46116;SDS011;32591;48.102;11.772;2024-03-25T07:24:38;7.20;;;1.77;;
46116;SDS011;32591;48.102;11.772;2024-03-25T07:27:05;7.53;;;2.20;;
46116;SDS011;32591;48.102;11.772;2024-03-25T07:29:31;6.10;;;2.50;;
46116;SDS011;32591;48.102;11.772;2024-03-25T07:31:57;6.88;;;1.83;;
46116;SDS011;32591;48.102;11.772;2024-03-25T07:34:25;6.20;;;2.30;;
46116;SDS011;32591;48.102;11.772;2024-03-25T07:36:51;3.60;;;1.38;;
46116;SDS011;32591;48.102;11.772;2024-03-25T07:39:18;4.95;;;2.17;;
46116;SDS011;32591;48.102;11.772;2024-03-25T07:41:44;3.15;;;2.13;;
46116;SDS011;32591;48.102;11.772;2024-03-25T07:44:10;5.03;;;2.05;;
46116;SDS011;32591;48.102;11.772;2024-03-25T07:46:36;8.13;;;2.03;;
46116;SDS011;32591;48.102;11.772;2024-03-25T07:49:03;6.25;;;2.00;;
46116;SDS011;32591;48.102;11.772;2024-03-25T07:51:30;8.60;;;2.08;;
46116;SDS011;32591;48.102;11.772;2024-03-25T07:53:57;3.92;;;1.85;;
46116;SDS011;32591;48.102;11.772;2024-03-25T07:56:23;5.20;;;1.50;;
46116;SDS011;32591;48.102;11.772;2024-03-25T07:58:49;2.70;;;1.80;;
46116;SDS011;32591;48.102;11.772;2024-03-25T08:01:15;4.40;;;2.03;;
46116;SDS011;32591;48.102;11.772;2024-03-25T08:03:41;4.05;;;1.77;;
46116;SDS011;32591;48.102;11.772;2024-03-25T08:06:08;6.35;;;2.15;;
46116;SDS011;32591;48.102;11.772;2024-03-25T08:08:36;2.97;;;1.80;;
46116;SDS011;32591;48.102;11.772;2024-03-25T08:11:02;3.88;;;1.95;;
46116;SDS011;32591;48.102;11.772;2024-03-25T08:13:28;5.18;;;2.10;;
46116;SDS011;32591;48.102;11.772;2024-03-25T08:15:55;4.38;;;1.83;;
46116;SDS011;32591;48.102;11.772;2024-03-25T08:18:21;4.22;;;2.00;;
46116;SDS011;32591;48.102;11.772;2024-03-25T08:20:47;6.40;;;1.95;;
46116;SDS011;32591;48.102;11.772;2024-03-25T08:23:13;4.28;;;2.15;;
46116;SDS011;32591;48.102;11.772;2024-03-25T08:25:41;5.65;;;1.92;;
46116;SDS011;32591;48.102;11.772;2024-03-25T08:28:07;3.22;;;2.30;;
46116;SDS011;32591;48.102;11.772;2024-03-25T08:30:33;3.97;;;1.83;;
46116;SDS011;32591;48.102;11.772;2024-03-25T08:33:00;6.20;;;2.33;;
46116;SDS011;32591;48.102;11.772;2024-03-25T08:35:27;5.25;;;2.08;;
46116;SDS011;32591;48.102;11.772;2024-03-25T08:37:53;4.88;;;1.58;;
46116;SDS011;32591;48.102;11.772;2024-03-25T08:40:19;4.15;;;1.92;;
46116;SDS011;32591;48.102;11.772;2024-03-25T08:42:47;3.10;;;1.58;;
46116;SDS011;32591;48.102;11.772;2024-03-25T08:45:13;4.20;;;2.25;;
46116;SDS011;32591;48.102;11.772;2024-03-25T08:47:39;2.00;;;1.40;;
46116;SDS011;32591;48.102;11.772;2024-03-25T08:50:06;4.85;;;1.60;;
46116;SDS011;32591;48.102;11.772;2024-03-25T08:52:33;5.25;;;1.85;;
46116;SDS011;32591;48.102;11.772;2024-03-25T08:54:59;5.18;;;1.85;;
46116;SDS011;32591;48.102;11.772;2024-03-25T08:57:25;4.75;;;2.65;;
46116;SDS011;32591;48.102;11.772;2024-03-25T08:59:53;6.50;;;2.30;;
46116;SDS011;32591;48.102;11.772;2024-03-25T09:02:19;5.22;;;1.55;;
46116;SDS011;32591;48.102;11.772;2024-03-25T09:04:45;4.75;;;2.08;;
46116;SDS011;32591;48.102;11.772;2024-03-25T09:07:13;3.53;;;1.48;;
46116;SDS011;32591;48.102;11.772;2024-03-25T09:09:40;5.55;;;1.85;;
46116;SDS011;32591;48.102;11.772;2024-03-25T09:12:25;3.42;;;1.40;;
46116;SDS011;32591;48.102;11.772;2024-03-25T09:14:51;5.30;;;1.80;;
46116;SDS011;32591;48.102;11.772;2024-03-25T09:17:18;5.50;;;1.98;;
46116;SDS011;32591;48.102;11.772;2024-03-25T09:19:45;4.53;;;2.25;;
46116;SDS011;32591;48.102;11.772;2024-03-25T09:22:11;4.05;;;1.50;;
46116;SDS011;32591;48.102;11.772;2024-03-25T09:24:37;4.40;;;1.58;;
46116;SDS011;32591;48.102;11.772;2024-03-25T09:27:04;4.15;;;1.52;;
46116;SDS011;32591;48.102;11.772;2024-03-25T09:29:30;4.38;;;1.60;;
46116;SDS011;32591;48.102;11.772;2024-03-25T09:31:56;5.75;;;2.20;;
46116;SDS011;32591;48.102;11.772;2024-03-25T09:34:24;3.25;;;1.88;;
46116;SDS011;32591;48.102;11.772;2024-03-25T09:36:50;2.80;;;1.73;;
46116;SDS011;32591;48.102;11.772;2024-03-25T09:39:16;2.58;;;1.30;;
46116;SDS011;32591;48.102;11.772;2024-03-25T09:41:43;4.75;;;1.42;;
46116;SDS011;32591;48.102;11.772;2024-03-25T09:44:11;5.22;;;1.85;;
46116;SDS011;32591;48.102;11.772;2024-03-25T09:46:37;5.30;;;1.15;;
46116;SDS011;32591;48.102;11.772;2024-03-25T09:49:03;1.40;;;1.05;;
46116;SDS011;32591;48.102;11.772;2024-03-25T09:51:32;2.35;;;1.40;;
46116;SDS011;32591;48.102;11.772;2024-03-25T09:53:58;2.20;;;1.08;;
46116;SDS011;32591;48.102;11.772;2024-03-25T09:56:24;2.80;;;1.40;;
46116;SDS011;32591;48.102;11.772;2024-03-25T09:58:51;2.20;;;1.17;;
46116;SDS011;32591;48.102;11.772;2024-03-25T10:03:44;1.90;;;0.93;;
46116;SDS011;32591;48.102;11.772;2024-03-25T10:06:10;3.47;;;1.33;;
46116;SDS011;32591;48.102;11.772;2024-03-25T10:08:38;3.65;;;1.55;;
46116;SDS011;32591;48.102;11.772;2024-03-25T10:11:04;3.33;;;1.08;;
46116;SDS011;32591;48.102;11.772;2024-03-25T10:13:30;2.30;;;1.23;;
46116;SDS011;32591;48.102;11.772;2024-03-25T10:15:56;3.50;;;0.68;;
46116;SDS011;32591;48.102;11.772;2024-03-25T10:18:23;1.48;;;0.90;;
46116;SDS011;32591;48.102;11.772;2024-03-25T10:20:49;1.83;;;0.73;;
46116;SDS011;32591;48.102;11.772;2024-03-25T10:23:15;3.30;;;1.08;;
46116;SDS011;32591;48.102;11.772;2024-03-25T10:25:48;1.42;;;0.82;;
46116;SDS011;32591;48.102;11.772;2024-03-25T10:28:14;1.70;;;0.98;;
46116;SDS011;32591;48.102;11.772;2024-03-25T10:30:41;2.25;;;0.80;;
46116;SDS011;32591;48.102;11.772;2024-03-25T10:33:07;2.45;;;1.00;;
46116;SDS011;32591;48.102;11.772;2024-03-25T10:35:34;1.60;;;1.00;;
46116;SDS011;32591;48.102;11.772;2024-03-25T10:38:04;1.42;;;0.98;;
46116;SDS011;32591;48.102;11.772;2024-03-25T10:40:31;2.67;;;1.00;;
46116;SDS011;32591;48.102;11.772;2024-03-25T10:43:03;2.33;;;1.10;;
46116;SDS011;32591;48.102;11.772;2024-03-25T10:45:32;3.72;;;1.00;;
46116;SDS011;32591;48.102;11.772;2024-03-25T10:48:02;1.45;;;1.17;;
46116;SDS011;32591;48.102;11.772;2024-03-25T10:50:34;3.75;;;0.88;;
46116;SDS011;32591;48.102;11.772;2024-03-25T10:53:02;1.73;;;0.85;;
46116;SDS011;32591;48.102;11.772;2024-03-25T10:55:30;1.17;;;0.88;;
46116;SDS011;32591;48.102;11.772;2024-03-25T10:57:57;2.95;;;1.52;;
46116;SDS011;32591;48.102;11.772;2024-03-25T11:00:26;2.28;;;1.45;;
46116;SDS011;32591;48.102;11.772;2024-03-25T11:02:53;2.45;;;1.05;;
46116;SDS011;32591;48.102;11.772;2024-03-25T11:05:20;3.78;;;1.35;;
46116;SDS011;32591;48.102;11.772;2024-03-25T11:07:46;2.83;;;1.23;;
46116;SDS011;32591;48.102;11.772;2024-03-25T11:10:12;2.03;;;1.08;;
46116;SDS011;32591;48.102;11.772;2024-03-25T11:12:40;3.20;;;1.35;;
46116;SDS011;32591;48.102;11.772;2024-03-25T11:15:07;1.00;;;0.82;;
46116;SDS011;32591;48.102;11.772;2024-03-25T11:17:36;2.22;;;1.42;;
46116;SDS011;32591;48.102;11.772;2024-03-25T11:20:06;1.40;;;0.93;;
46116;SDS011;32591;48.102;11.772;2024-03-25T11:22:46;2.60;;;1.35;;
46116;SDS011;32591;48.102;11.772;2024-03-25T11:25:13;1.37;;;0.83;;
46116;SDS011;32591;48.102;11.772;2024-03-25T11:27:42;2.67;;;0.80;;
46116;SDS011;32591;48.102;11.772;2024-03-25T11:30:10;2.90;;;1.30;;
46116;SDS011;32591;48.102;11.772;2024-03-25T11:32:44;2.97;;;1.15;;
46116;SDS011;32591;48.102;11.772;2024-03-25T11:35:17;1.65;;;1.13;;
46116;SDS011;32591;48.102;11.772;2024-03-25T11:37:43;2.30;;;1.30;;
46116;SDS011;32591;48.102;11.772;2024-03-25T11:40:10;1.58;;;0.98;;
46116;SDS011;32591;48.102;11.772;2024-03-25T11:42:38;1.25;;;1.00;;
46116;SDS011;32591;48.102;11.772;2024-03-25T11:45:05;1.17;;;0.73;;
46116;SDS011;32591;48.102;11.772;2024-03-25T11:47:32;1.52;;;0.93;;
46116;SDS011;32591;48.102;11.772;2024-03-25T11:50:00;2.22;;;1.33;;
46116;SDS011;32591;48.102;11.772;2024-03-25T11:52:33;3.15;;;1.15;;
46116;SDS011;32591;48.102;11.772;2024-03-25T11:54:59;1.52;;;1.05;;
46116;SDS011;32591;48.102;11.772;2024-03-25T11:57:25;1.13;;;0.70;;
46116;SDS011;32591;48.102;11.772;2024-03-25T11:59:53;2.72;;;0.93;;
46116;SDS011;32591;48.102;11.772;2024-03-25T12:02:20;0.98;;;0.70;;
46116;SDS011;32591;48.102;11.772;2024-03-25T12:04:47;1.83;;;0.60;;
46116;SDS011;32591;48.102;11.772;2024-03-25T12:07:15;1.17;;;0.82;;
46116;SDS011;32591;48.102;11.772;2024-03-25T12:09:41;3.40;;;0.80;;
46116;SDS011;32591;48.102;11.772;2024-03-25T12:12:22;1.05;;;0.57;;
46116;SDS011;32591;48.102;11.772;2024-03-25T12:14:49;2.45;;;0.85;;
46116;SDS011;32591;48.102;11.772;2024-03-25T12:17:16;1.90;;;0.80;;
46116;SDS011;32591;48.102;11.772;2024-03-25T12:19:42;2.17;;;0.90;;
46116;SDS011;32591;48.102;11.772;2024-03-25T12:22:08;1.92;;;0.80;;
46116;SDS011;32591;48.102;11.772;2024-03-25T12:24:37;1.65;;;0.80;;
46116;SDS011;32591;48.102;11.772;2024-03-25T12:27:04;1.33;;;0.68;;
46116;SDS011;32591;48.102;11.772;2024-03-25T12:29:30;2.58;;;0.80;;
46116;SDS011;32591;48.102;11.772;2024-03-25T12:31:57;1.25;;;0.70;;
46116;SDS011;32591;48.102;11.772;2024-03-25T12:34:24;1.98;;;0.85;;
46116;SDS011;32591;48.102;11.772;2024-03-25T12:36:51;1.38;;;0.82;;
46116;SDS011;32591;48.102;11.772;2024-03-25T12:39:17;2.40;;;1.05;;
46116;SDS011;32591;48.102;11.772;2024-03-25T12:44:11;1.42;;;0.82;;
46116;SDS011;32591;48.102;11.772;2024-03-25T12:46:38;1.17;;;0.40;;
46116;SDS011;32591;48.102;11.772;2024-03-25T12:49:05;2.10;;;0.70;;
46116;SDS011;32591;48.102;11.772;2024-03-25T12:51:31;1.73;;;0.82;;
46116;SDS011;32591;48.102;11.772;2024-03-25T12:53:57;2.17;;;0.70;;
46116;SDS011;32591;48.102;11.772;2024-03-25T12:56:24;1.75;;;0.60;;
46116;SDS011;32591;48.102;11.772;2024-03-25T12:58:51;2.33;;;1.15;;
46116;SDS011;32591;48.102;11.772;2024-03-25T13:01:18;3.17;;;1.33;;
46116;SDS011;32591;48.102;11.772;2024-03-25T13:03:44;1.55;;;0.85;;
46116;SDS011;32591;48.102;11.772;2024-03-25T13:06:10;4.45;;;1.40;;
46116;SDS011;32591;48.102;11.772;2024-03-25T13:08:37;2.03;;;1.33;;
46116;SDS011;32591;48.102;11.772;2024-03-25T13:11:03;2.03;;;1.00;;
46116;SDS011;32591;48.102;11.772;2024-03-25T13:13:29;2.95;;;1.20;;
46116;SDS011;32591;48.102;11.772;2024-03-25T13:15:57;1.33;;;0.90;;
46116;SDS011;32591;48.102;11.772;2024-03-25T13:18:23;1.92;;;1.00;;
46116;SDS011;32591;48.102;11.772;2024-03-25T13:20:50;4.90;;;1.00;;
46116;SDS011;32591;48.102;11.772;2024-03-25T13:23:16;3.55;;;0.80;;
46116;SDS011;32591;48.102;11.772;2024-03-25T13:25:42;1.13;;;0.68;;
46116;SDS011;32591;48.102;11.772;2024-03-25T13:28:08;1.33;;;0.75;;
46116;SDS011;32591;48.102;11.772;2024-03-25T13:30:35;2.00;;;0.93;;
46116;SDS011;32591;48.102;11.772;2024-03-25T13:33:02;1.65;;;0.88;;
46116;SDS011;32591;48.102;11.772;2024-03-25T13:35:29;3.60;;;0.93;;
46116;SDS011;32591;48.102;11.772;2024-03-25T13:37:55;2.05;;;1.20;;
46116;SDS011;32591;48.102;11.772;2024-03-25T13:40:22;3.15;;;1.00;;
46116;SDS011;32591;48.102;11.772;2024-03-25T13:42:48;4.40;;;1.63;;
46116;SDS011;32591;48.102;11.772;2024-03-25T13:45:14;2.08;;;1.17;;
46116;SDS011;32591;48.102;11.772;2024-03-25T13:47:41;1.15;;;0.77;;
46116;SDS011;32591;48.102;11.772;2024-03-25T13:50:09;1.50;;;1.00;;
46116;SDS011;32591;48.102;11.772;2024-03-25T13:52:35;1.50;;;0.63;;
46116;SDS011;32591;48.102;11.772;2024-03-25T13:55:01;2.85;;;1.20;;
46116;SDS011;32591;48.102;11.772;2024-03-25T13:57:28;1.98;;;0.75;;
46116;SDS011;32591;48.102;11.772;2024-03-25T13:59:54;1.45;;;0.80;;
46116;SDS011;32591;48.102;11.772;2024-03-25T14:02:20;5.47;;;1.23;;
46116;SDS011;32591;48.102;11.772;2024-03-25T14:04:48;2.88;;;0.80;;
46116;SDS011;32591;48.102;11.772;2024-03-25T14:07:16;2.45;;;0.93;;
46116;SDS011;32591;48.102;11.772;2024-03-25T14:09:42;3.72;;;0.98;;
46116;SDS011;32591;48.102;11.772;2024-03-25T14:12:09;1.30;;;0.85;;
46116;SDS011;32591;48.102;11.772;2024-03-25T14:14:35;1.65;;;0.90;;
46116;SDS011;32591;48.102;11.772;2024-03-25T14:17:01;2.10;;;0.80;;
46116;SDS011;32591;48.102;11.772;2024-03-25T14:19:27;1.17;;;0.52;;
46116;SDS011;32591;48.102;11.772;2024-03-25T14:21:54;1.10;;;0.90;;
46116;SDS011;32591;48.102;11.772;2024-03-25T14:24:21;2.22;;;0.63;;
46116;SDS011;32591;48.102;11.772;2024-03-25T14:26:48;1.50;;;0.93;;
46116;SDS011;32591;48.102;11.772;2024-03-25T14:29:14;3.08;;;0.70;;
46116;SDS011;32591;48.102;11.772;2024-03-25T14:31:40;3.83;;;0.77;;
46116;SDS011;32591;48.102;11.772;2024-03-25T14:34:06;3.33;;;1.02;;
46116;SDS011;32591;48.102;11.772;2024-03-25T14:36:33;2.65;;;1.08;;
46116;SDS011;32591;48.102;11.772;2024-03-25T14:38:59;3.50;;;1.80;;
46116;SDS011;32591;48.102;11.772;2024-03-25T14:41:27;1.80;;;1.27;;
46116;SDS011;32591;48.102;11.772;2024-03-25T14:44:03;3.50;;;1.00;;
46116;SDS011;32591;48.102;11.772;2024-03-25T14:46:30;3.33;;;1.45;;
46116;SDS011;32591;48.102;11.772;2024-03-25T14:48:56;3.28;;;1.20;;